Time;durP1;ratioP1;P1;durP2;ratioP2;P2;SDS_P1;SDS_P2;PMS_P1;PMS_P2;Temp;Humidity;BMP_temperature;BMP_pressure;BME280_temperature;BME280_humidity;BME280_pressure;Samples;Min_cycle;Max_cycle;Signal;HPM_P1;HPM_P2
2022/06/06 00:00:44;;;;;;;;;;;21.30;46.90;;;;;;5080680;28;19924;-56
2022/06/06 00:03:11;;;;;;;;;;;21.30;46.90;;;;;;5078595;28;19927;-53
2022/06/06 00:05:40;;;;;;;;;;;21.30;46.90;;;;;;5082674;28;19973;-57
2022/06/06 00:08:07;;;;;;;;;;;21.30;46.90;;;;;;5084007;28;20373;-53
2022/06/06 00:10:34;;;;;;;;;;;21.30;46.90;;;;;;5079823;28;19995;-58
2022/06/06 00:13:04;;;;;;;;;;;21.30;46.90;;;;;;5083388;28;20349;-54
2022/06/06 00:15:31;;;;;;;;;;;21.30;46.90;;;;;;5079004;28;19932;-55
2022/06/06 00:17:58;;;;;;;;;;;21.30;46.90;;;;;;5086420;28;19942;-53
2022/06/06 00:20:27;;;;;;;;;;;21.30;47.00;;;;;;5077591;28;19921;-55
2022/06/06 00:22:54;;;;;;;;;;;21.30;47.00;;;;;;5085336;28;19963;-55
2022/06/06 00:25:21;;;;;;;;;;;21.30;47.00;;;;;;5079855;28;19953;-56
2022/06/06 00:27:50;;;;;;;;;;;21.30;47.10;;;;;;5079845;28;19921;-54
2022/06/06 00:30:19;;;;;;;;;;;21.30;47.20;;;;;;5076844;28;19924;-55
2022/06/06 00:35:31;;;;;;;;;;;21.30;47.40;;;;;;5079659;28;19927;-53
2022/06/06 00:37:57;;;;;;;;;;;21.30;47.50;;;;;;5075693;28;20284;-53
2022/06/06 00:40:24;;;;;;;;;;;21.30;47.70;;;;;;5081722;28;19920;-56
2022/06/06 00:42:51;;;;;;;;;;;21.30;47.80;;;;;;5081850;28;19985;-55
2022/06/06 00:45:21;;;;;;;;;;;21.30;47.90;;;;;;5081137;28;19932;-57
2022/06/06 00:47:48;;;;;;;;;;;21.30;48.00;;;;;;5085814;28;20269;-54
2022/06/06 00:50:17;;;;;;;;;;;21.30;48.00;;;;;;5077353;28;19924;-57
2022/06/06 00:52:45;;;;;;;;;;;21.30;48.30;;;;;;5078121;28;19986;-56
2022/06/06 00:55:12;;;;;;;;;;;21.30;48.00;;;;;;5079871;28;19932;-58
2022/06/06 00:57:43;;;;;;;;;;;21.30;48.00;;;;;;5078130;28;19965;-54
2022/06/06 01:00:11;;;;;;;;;;;21.30;48.00;;;;;;5080840;28;20349;-56
2022/06/06 01:02:40;;;;;;;;;;;21.30;48.00;;;;;;5085669;28;20019;-57
2022/06/06 01:05:07;;;;;;;;;;;21.40;48.10;;;;;;5076404;28;19921;-58
2022/06/06 01:07:35;;;;;;;;;;;21.30;48.00;;;;;;5062434;28;19924;-54
2022/06/06 01:10:02;;;;;;;;;;;21.30;48.10;;;;;;5078083;28;19921;-56
2022/06/06 01:12:29;;;;;;;;;;;21.40;48.30;;;;;;5088706;28;20010;-55
2022/06/06 01:14:56;;;;;;;;;;;21.30;48.30;;;;;;5079256;28;19980;-56
2022/06/06 01:17:27;;;;;;;;;;;21.30;48.30;;;;;;5076799;28;20014;-57
2022/06/06 01:20:02;;;;;;;;;;;21.30;48.40;;;;;;5080676;28;19931;-57
2022/06/06 01:22:47;;;;;;;;;;;21.40;48.50;;;;;;5079215;28;19928;-56
2022/06/06 01:25:18;;;;;;;;;;;21.40;48.60;;;;;;5084996;28;19924;-57
2022/06/06 01:27:47;;;;;;;;;;;21.30;48.50;;;;;;5079216;28;19928;-57
2022/06/06 01:30:16;;;;;;;;;;;21.30;48.70;;;;;;5082744;28;20414;-56
2022/06/06 01:32:43;;;;;;;;;;;21.30;48.50;;;;;;5077727;28;19928;-57
2022/06/06 01:35:10;;;;;;;;;;;21.30;48.60;;;;;;5077669;28;19928;-56
2022/06/06 01:37:38;;;;;;;;;;;21.30;48.70;;;;;;5087715;28;19924;-57
2022/06/06 01:40:08;;;;;;;;;;;21.40;48.80;;;;;;5079361;28;19924;-58
2022/06/06 01:42:36;;;;;;;;;;;21.30;48.70;;;;;;5075631;28;19997;-55
2022/06/06 01:45:04;;;;;;;;;;;21.40;48.80;;;;;;5081149;28;20269;-57
2022/06/06 01:47:43;;;;;;;;;;;21.30;49.40;;;;;;5083861;28;20238;-55
2022/06/06 01:50:10;;;;;;;;;;;21.40;48.90;;;;;;5077693;28;19952;-57
2022/06/06 01:52:50;;;;;;;;;;;21.40;49.00;;;;;;5079064;28;19934;-57
2022/06/06 01:55:17;;;;;;;;;;;21.30;48.90;;;;;;5084822;28;19920;-54
2022/06/06 01:57:45;;;;;;;;;;;21.40;49.00;;;;;;5079362;28;20005;-55
2022/06/06 02:00:12;;;;;;;;;;;21.40;49.00;;;;;;5075677;28;19924;-57
2022/06/06 02:02:43;;;;;;;;;;;21.40;49.10;;;;;;5076503;28;19924;-54
2022/06/06 02:05:11;;;;;;;;;;;21.40;49.20;;;;;;5082962;28;20446;-56
2022/06/06 02:07:38;;;;;;;;;;;21.40;49.30;;;;;;5075505;28;20021;-57
2022/06/06 02:10:05;;;;;;;;;;;21.40;49.30;;;;;;5080080;28;19927;-56
2022/06/06 02:12:31;;;;;;;;;;;21.40;49.20;;;;;;5077938;28;19924;-56
2022/06/06 02:14:58;;;;;;;;;;;21.40;49.30;;;;;;5074602;28;20092;-50
2022/06/06 02:17:25;;;;;;;;;;;21.40;49.30;;;;;;5083236;28;19966;-55
2022/06/06 02:19:53;;;;;;;;;;;21.40;49.30;;;;;;5074955;28;19974;-54
2022/06/06 02:22:20;;;;;;;;;;;21.40;49.30;;;;;;5081865;28;19928;-55
2022/06/06 02:24:47;;;;;;;;;;;21.40;49.30;;;;;;5074675;28;19924;-52
2022/06/06 02:27:14;;;;;;;;;;;21.40;49.30;;;;;;5076284;28;19978;-54
2022/06/06 02:29:41;;;;;;;;;;;21.40;50.00;;;;;;5083493;28;20482;-57
2022/06/06 02:32:08;;;;;;;;;;;21.40;49.50;;;;;;5082440;28;19920;-55
2022/06/06 02:34:35;;;;;;;;;;;21.40;49.50;;;;;;5083458;28;20303;-54
2022/06/06 02:37:03;;;;;;;;;;;21.40;49.50;;;;;;5083865;28;19951;-55
2022/06/06 02:39:30;;;;;;;;;;;21.40;49.50;;;;;;5081560;28;19932;-56
2022/06/06 02:41:57;;;;;;;;;;;21.40;49.60;;;;;;5083490;28;19920;-56
2022/06/06 02:44:24;;;;;;;;;;;21.40;49.60;;;;;;5083697;28;19970;-55
2022/06/06 02:46:51;;;;;;;;;;;21.40;49.60;;;;;;5085302;28;20254;-56
2022/06/06 02:49:18;;;;;;;;;;;21.40;49.60;;;;;;5079265;28;19924;-53
2022/06/06 02:51:44;;;;;;;;;;;21.40;49.60;;;;;;5084495;28;20285;-56
2022/06/06 02:54:13;;;;;;;;;;;21.40;49.60;;;;;;5087213;28;19967;-52
2022/06/06 02:56:39;;;;;;;;;;;21.40;49.60;;;;;;5082888;28;19978;-57
2022/06/06 02:59:07;;;;;;;;;;;21.40;49.60;;;;;;5088485;28;19924;-56
2022/06/06 03:01:33;;;;;;;;;;;21.40;49.70;;;;;;5085256;28;19920;-54
2022/06/06 03:04:00;;;;;;;;;;;21.40;49.70;;;;;;5078717;28;19935;-52
2022/06/06 03:06:29;;;;;;;;;;;21.40;49.70;;;;;;5079324;28;19924;-55
2022/06/06 03:09:01;;;;;;;;;;;21.40;49.70;;;;;;5081013;28;19928;-56
2022/06/06 03:11:35;;;;;;;;;;;21.40;49.70;;;;;;5081571;28;19921;-58
2022/06/06 03:14:26;;;;;;;;;;;21.40;49.80;;;;;;5084653;28;19970;-56
2022/06/06 03:22:36;;;;;;;;;;;21.40;49.80;;;;;;5087498;28;19927;-56
2022/06/06 03:25:04;;;;;;;;;;;21.40;49.90;;;;;;5080994;28;19924;-53
2022/06/06 03:27:39;;;;;;;;;;;21.40;50.00;;;;;;5077205;28;19920;-52
2022/06/06 03:30:07;;;;;;;;;;;21.40;50.00;;;;;;5081759;28;20015;-56
2022/06/06 03:32:38;;;;;;;;;;;21.40;50.00;;;;;;5084723;28;19927;-56
2022/06/06 03:35:07;;;;;;;;;;;21.40;50.00;;;;;;5081294;28;20376;-55
2022/06/06 03:37:36;;;;;;;;;;;21.40;50.00;;;;;;5078949;28;19939;-55
2022/06/06 03:40:04;;;;;;;;;;;21.40;50.10;;;;;;5078746;28;20273;-56
2022/06/06 03:42:32;;;;;;;;;;;21.40;50.00;;;;;;5083550;28;20319;-54
2022/06/06 03:45:03;;;;;;;;;;;21.40;50.00;;;;;;5083374;28;19920;-52
2022/06/06 03:47:34;;;;;;;;;;;21.40;50.10;;;;;;5076515;28;19928;-54
2022/06/06 03:50:02;;;;;;;;;;;21.40;50.20;;;;;;5081232;28;20208;-54
2022/06/06 03:52:33;;;;;;;;;;;21.40;50.10;;;;;;5083255;28;20326;-55
2022/06/06 03:55:02;;;;;;;;;;;21.40;50.20;;;;;;5081222;28;20284;-56
2022/06/06 03:57:29;;;;;;;;;;;21.40;50.30;;;;;;5078466;28;19932;-56
2022/06/06 03:59:56;;;;;;;;;;;21.40;50.30;;;;;;5083539;28;19927;-54
2022/06/06 04:02:28;;;;;;;;;;;21.40;50.30;;;;;;5081277;28;19923;-53
2022/06/06 04:04:55;;;;;;;;;;;21.40;50.40;;;;;;5075522;28;19931;-56
2022/06/06 04:07:22;;;;;;;;;;;21.40;50.40;;;;;;5082993;28;20344;-53
2022/06/06 04:09:52;;;;;;;;;;;21.40;50.40;;;;;;5081714;28;19928;-53
2022/06/06 04:12:32;;;;;;;;;;;21.40;50.40;;;;;;5081662;28;20366;-54
2022/06/06 04:15:02;;;;;;;;;;;21.40;50.40;;;;;;5081659;28;20432;-53
2022/06/06 04:17:37;;;;;;;;;;;21.40;50.50;;;;;;5084758;28;20322;-57
2022/06/06 04:20:10;;;;;;;;;;;21.40;50.50;;;;;;5082906;28;19963;-54
2022/06/06 04:22:39;;;;;;;;;;;21.40;50.60;;;;;;5079487;28;19920;-56
2022/06/06 04:25:10;;;;;;;;;;;21.40;50.60;;;;;;5080064;28;19920;-56
2022/06/06 04:27:40;;;;;;;;;;;21.40;50.60;;;;;;5081836;28;20007;-56
2022/06/06 04:30:07;;;;;;;;;;;21.40;50.60;;;;;;5082930;28;19927;-54
2022/06/06 04:32:40;;;;;;;;;;;21.40;50.60;;;;;;5079841;28;20392;-54
2022/06/06 04:35:08;;;;;;;;;;;21.40;50.60;;;;;;5075616;28;19928;-56
2022/06/06 04:37:36;;;;;;;;;;;21.40;50.60;;;;;;5081719;28;19928;-55
2022/06/06 04:40:04;;;;;;;;;;;21.40;50.60;;;;;;5078920;28;19927;-55
2022/06/06 04:42:33;;;;;;;;;;;21.40;50.60;;;;;;5080928;28;20238;-54
2022/06/06 04:45:01;;;;;;;;;;;21.40;50.70;;;;;;5081855;28;19977;-55
2022/06/06 04:47:30;;;;;;;;;;;21.40;50.70;;;;;;5078971;28;19932;-56
2022/06/06 04:49:58;;;;;;;;;;;21.40;50.60;;;;;;5081139;28;19921;-54
2022/06/06 04:52:25;;;;;;;;;;;21.40;50.70;;;;;;5080412;28;19924;-51
2022/06/06 04:54:52;;;;;;;;;;;21.40;50.70;;;;;;5076085;28;19920;-55
2022/06/06 04:57:19;;;;;;;;;;;21.40;50.80;;;;;;5073180;28;19920;-54
2022/06/06 04:59:46;;;;;;;;;;;21.40;50.90;;;;;;5075434;28;19920;-55
2022/06/06 05:02:13;;;;;;;;;;;21.40;50.80;;;;;;5082625;28;20007;-55
2022/06/06 05:04:40;;;;;;;;;;;21.40;50.90;;;;;;5082307;28;19973;-56
2022/06/06 05:07:15;;;;;;;;;;;21.40;50.90;;;;;;5081553;28;19965;-56
2022/06/06 05:09:52;;;;;;;;;;;21.40;50.90;;;;;;5075944;28;20431;-56
2022/06/06 05:12:22;;;;;;;;;;;21.40;50.90;;;;;;5074192;28;19920;-51
2022/06/06 05:14:52;;;;;;;;;;;21.40;51.00;;;;;;5079306;28;20277;-56
2022/06/06 05:17:26;;;;;;;;;;;21.40;50.90;;;;;;5095639;28;20300;-55
2022/06/06 05:19:56;;;;;;;;;;;21.40;51.00;;;;;;5077862;28;19921;-55
2022/06/06 05:22:36;;;;;;;;;;;21.40;51.00;;;;;;5076292;28;19924;-55
2022/06/06 05:25:04;;;;;;;;;;;21.40;51.00;;;;;;5081867;28;19942;-56
2022/06/06 05:27:34;;;;;;;;;;;21.40;51.00;;;;;;5081331;28;19967;-55
2022/06/06 05:30:04;;;;;;;;;;;21.40;51.00;;;;;;5084641;28;19981;-56
2022/06/06 05:32:41;;;;;;;;;;;21.40;51.00;;;;;;5076444;28;19932;-55
2022/06/06 05:35:09;;;;;;;;;;;21.40;51.00;;;;;;5079088;28;19925;-55
2022/06/06 05:37:40;;;;;;;;;;;21.40;51.00;;;;;;5081706;28;19937;-55
2022/06/06 05:40:09;;;;;;;;;;;21.40;51.00;;;;;;5079561;28;19924;-53
2022/06/06 05:42:42;;;;;;;;;;;21.40;51.00;;;;;;5080345;28;19943;-56
2022/06/06 05:45:11;;;;;;;;;;;21.40;51.00;;;;;;5083697;28;19990;-56
2022/06/06 05:47:39;;;;;;;;;;;21.40;51.00;;;;;;5077408;28;20295;-54
2022/06/06 05:50:15;;;;;;;;;;;21.40;51.00;;;;;;5078673;28;19928;-55
2022/06/06 05:52:48;;;;;;;;;;;21.40;51.00;;;;;;5079485;28;20438;-54
2022/06/06 05:55:19;;;;;;;;;;;21.40;51.00;;;;;;5079985;28;19924;-53
2022/06/06 05:57:53;;;;;;;;;;;21.40;51.10;;;;;;5078755;28;20287;-55
2022/06/06 06:00:21;;;;;;;;;;;21.40;51.10;;;;;;5085139;28;19920;-56
2022/06/06 06:02:57;;;;;;;;;;;21.40;51.10;;;;;;5075476;28;19958;-56
2022/06/06 06:05:27;;;;;;;;;;;21.40;51.10;;;;;;5079193;28;19974;-57
2022/06/06 06:07:58;;;;;;;;;;;21.40;51.10;;;;;;5080010;28;19920;-55
2022/06/06 06:10:27;;;;;;;;;;;21.40;51.10;;;;;;5081564;28;20456;-56
2022/06/06 06:12:58;;;;;;;;;;;21.40;51.10;;;;;;5080423;28;19942;-53
2022/06/06 06:15:30;;;;;;;;;;;21.40;51.10;;;;;;5080396;28;19928;-55
2022/06/06 06:17:56;;;;;;;;;;;21.40;51.10;;;;;;5087219;28;19924;-54
2022/06/06 06:20:24;;;;;;;;;;;21.40;51.20;;;;;;5087044;28;19934;-54
2022/06/06 06:22:51;;;;;;;;;;;21.40;51.20;;;;;;5077177;28;19928;-55
2022/06/06 06:25:20;;;;;;;;;;;21.40;51.20;;;;;;5083738;28;19921;-53
2022/06/06 06:27:46;;;;;;;;;;;21.40;51.30;;;;;;5080516;28;19920;-55
2022/06/06 06:30:13;;;;;;;;;;;21.40;51.20;;;;;;5085617;28;19923;-55
2022/06/06 06:32:45;;;;;;;;;;;21.40;51.30;;;;;;5086074;28;20311;-56
2022/06/06 06:35:13;;;;;;;;;;;21.40;51.30;;;;;;5084723;28;19927;-56
2022/06/06 06:37:43;;;;;;;;;;;21.40;51.40;;;;;;5085370;28;19920;-55
2022/06/06 06:40:13;;;;;;;;;;;21.40;51.40;;;;;;5091078;28;19924;-53
2022/06/06 06:42:46;;;;;;;;;;;21.40;51.40;;;;;;5084479;28;19920;-56
2022/06/06 06:45:15;;;;;;;;;;;21.40;51.50;;;;;;5080149;28;19931;-56
2022/06/06 06:47:42;;;;;;;;;;;21.40;51.50;;;;;;5085873;28;20401;-56
2022/06/06 06:50:10;;;;;;;;;;;21.40;51.60;;;;;;5080598;28;19920;-56
2022/06/06 06:52:39;;;;;;;;;;;21.40;51.70;;;;;;5086999;28;20387;-52
2022/06/06 06:55:08;;;;;;;;;;;21.40;51.70;;;;;;5084377;28;20246;-55
2022/06/06 06:57:39;;;;;;;;;;;21.40;51.70;;;;;;5083805;28;19974;-54
2022/06/06 07:00:10;;;;;;;;;;;21.40;51.80;;;;;;5077939;28;19973;-56
2022/06/06 07:11:02;;;;;;;;;;;21.40;51.90;;;;;;5083049;28;20039;-52
2022/06/06 07:13:32;;;;;;;;;;;21.40;51.90;;;;;;5084323;28;19950;-53
2022/06/06 07:16:03;;;;;;;;;;;21.40;51.90;;;;;;5078263;28;19920;-55
2022/06/06 07:18:31;;;;;;;;;;;21.40;51.80;;;;;;5076114;28;20018;-54
2022/06/06 07:20:58;;;;;;;;;;;21.40;51.80;;;;;;5081811;28;19977;-55
2022/06/06 07:23:25;;;;;;;;;;;21.40;51.80;;;;;;5080231;28;19955;-52
2022/06/06 07:25:51;;;;;;;;;;;21.40;51.80;;;;;;5078477;28;19932;-52
2022/06/06 07:28:19;;;;;;;;;;;21.40;51.80;;;;;;5079455;28;19920;-55
2022/06/06 07:30:49;;;;;;;;;;;21.40;51.70;;;;;;5080212;28;19927;-56
2022/06/06 07:33:23;;;;;;;;;;;21.40;51.70;;;;;;5080192;28;19960;-53
2022/06/06 07:35:52;;;;;;;;;;;21.40;51.70;;;;;;5079995;28;20296;-50
2022/06/06 07:38:36;;;;;;;;;;;21.30;51.60;;;;;;5078126;28;19951;-54
2022/06/06 07:41:07;;;;;;;;;;;21.40;51.70;;;;;;5075678;28;19966;-51
2022/06/06 07:43:53;;;;;;;;;;;21.40;51.70;;;;;;5080052;28;19920;-56
2022/06/06 07:46:23;;;;;;;;;;;21.30;51.60;;;;;;5081399;28;19920;-56
2022/06/06 07:48:52;;;;;;;;;;;21.40;51.70;;;;;;5079299;28;20011;-55
2022/06/06 07:51:21;;;;;;;;;;;21.40;51.70;;;;;;5076115;28;19963;-54
2022/06/06 07:53:50;;;;;;;;;;;21.40;51.60;;;;;;5082198;28;20026;-53
2022/06/06 07:56:18;;;;;;;;;;;21.40;51.70;;;;;;5078392;28;19920;-53
2022/06/06 07:58:48;;;;;;;;;;;21.30;51.50;;;;;;5080865;28;20416;-53
2022/06/06 08:01:17;;;;;;;;;;;21.40;51.60;;;;;;5074916;28;19967;-50
2022/06/06 08:03:46;;;;;;;;;;;21.30;51.50;;;;;;5082035;28;19921;-49
2022/06/06 08:06:20;;;;;;;;;;;21.40;51.60;;;;;;5073688;28;19971;-50
2022/06/06 08:09:05;;;;;;;;;;;21.40;51.60;;;;;;5081600;28;20285;-50
2022/06/06 08:11:35;;;;;;;;;;;21.30;51.50;;;;;;5089257;28;20348;-50
2022/06/06 08:14:04;;;;;;;;;;;21.40;52.10;;;;;;5079644;28;19924;-53
2022/06/06 08:16:32;;;;;;;;;;;21.40;51.60;;;;;;5088860;28;20327;-50
2022/06/06 08:19:13;;;;;;;;;;;21.30;51.50;;;;;;5083653;28;19921;-53
2022/06/06 08:21:43;;;;;;;;;;;21.40;51.50;;;;;;5075766;28;19941;-54
2022/06/06 08:24:12;;;;;;;;;;;21.40;51.50;;;;;;5072567;28;19928;-50
2022/06/06 08:26:41;;;;;;;;;;;21.30;51.40;;;;;;5088892;28;19951;-54
2022/06/06 08:29:10;;;;;;;;;;;21.30;51.50;;;;;;5079266;28;20388;-54
2022/06/06 08:31:36;;;;;;;;;;;21.30;51.50;;;;;;5080796;28;19927;-56
2022/06/06 08:34:03;;;;;;;;;;;21.40;51.50;;;;;;5079503;28;19973;-56
2022/06/06 08:36:33;;;;;;;;;;;21.30;51.40;;;;;;5084349;28;19931;-56
2022/06/06 08:39:03;;;;;;;;;;;21.40;51.50;;;;;;5089320;28;20377;-54
2022/06/06 08:41:51;;;;;;;;;;;21.30;51.40;;;;;;5088483;28;19974;-56
2022/06/06 08:44:28;;;;;;;;;;;21.40;52.10;;;;;;5077749;28;19990;-52
2022/06/06 08:47:02;;;;;;;;;;;21.40;51.50;;;;;;5082559;28;19992;-55
2022/06/06 08:52:28;;;;;;;;;;;21.40;51.40;;;;;;5090220;28;19927;-55
2022/06/06 08:55:10;;;;;;;;;;;21.40;51.40;;;;;;5085878;28;19931;-56
2022/06/06 08:57:43;;;;;;;;;;;21.40;51.40;;;;;;5071869;28;19969;-56
2022/06/06 09:00:20;;;;;;;;;;;21.40;51.40;;;;;;5072411;28;19924;-58
2022/06/06 09:03:14;;;;;;;;;;;21.40;51.50;;;;;;5085951;28;19924;-54
2022/06/06 09:05:56;;;;;;;;;;;21.40;51.50;;;;;;5097024;28;19920;-55
2022/06/06 09:08:41;;;;;;;;;;;21.40;51.60;;;;;;5082393;28;20272;-55
2022/06/06 09:11:19;;;;;;;;;;;21.40;51.70;;;;;;5076493;28;19986;-57
2022/06/06 09:13:52;;;;;;;;;;;21.40;51.70;;;;;;5075927;28;19932;-56
2022/06/06 09:16:36;;;;;;;;;;;21.40;51.70;;;;;;5081573;28;19985;-58
2022/06/06 09:19:21;;;;;;;;;;;21.40;51.70;;;;;;5074979;28;20347;-57
2022/06/06 09:22:07;;;;;;;;;;;21.40;51.70;;;;;;5075099;28;19924;-56
2022/06/06 09:24:52;;;;;;;;;;;21.30;51.50;;;;;;5075349;28;20019;-53
2022/06/06 09:27:44;;;;;;;;;;;21.40;51.60;;;;;;5073275;28;20308;-56
2022/06/06 09:30:23;;;;;;;;;;;21.30;51.40;;;;;;5080858;28;19920;-53
2022/06/06 09:32:59;;;;;;;;;;;21.30;51.50;;;;;;5075419;28;19920;-56
2022/06/06 09:35:32;;;;;;;;;;;21.30;51.30;;;;;;5074620;28;19975;-57
2022/06/06 09:38:05;;;;;;;;;;;21.30;51.30;;;;;;5078672;28;20025;-54
2022/06/06 09:40:34;;;;;;;;;;;21.30;51.30;;;;;;5076391;28;19956;-55
2022/06/06 09:43:09;;;;;;;;;;;21.30;51.20;;;;;;5073494;28;19952;-55
2022/06/06 09:45:41;;;;;;;;;;;21.40;51.30;;;;;;5078958;28;19942;-53
2022/06/06 09:48:27;;;;;;;;;;;21.30;51.20;;;;;;5061233;28;19967;-55
2022/06/06 09:51:14;;;;;;;;;;;21.40;51.20;;;;;;5099497;28;19920;-53
2022/06/06 09:59:33;;;;;;;;;;;21.30;51.10;;;;;;5077596;28;20359;-55
2022/06/06 10:02:16;;;;;;;;;;;21.30;51.10;;;;;;5078232;28;20323;-56
2022/06/06 10:04:52;;;;;;;;;;;21.30;51.00;;;;;;5073856;28;19925;-53
2022/06/06 10:07:26;;;;;;;;;;;21.40;51.20;;;;;;5083685;28;19988;-57
2022/06/06 10:10:09;;;;;;;;;;;21.40;51.10;;;;;;5070317;28;19926;-55
2022/06/06 10:12:44;;;;;;;;;;;21.40;51.10;;;;;;5086644;28;19920;-55
2022/06/06 10:15:38;;;;;;;;;;;21.40;51.10;;;;;;5071755;28;19970;-58
2022/06/06 10:18:11;;;;;;;;;;;21.40;51.10;;;;;;5051348;28;20319;-52
2022/06/06 10:20:41;;;;;;;;;;;21.40;51.10;;;;;;5072194;28;20338;-55
2022/06/06 10:23:27;;;;;;;;;;;21.40;51.10;;;;;;5077442;28;20280;-53
2022/06/06 10:26:15;;;;;;;;;;;21.40;51.10;;;;;;5071071;28;20416;-55
2022/06/06 10:28:53;;;;;;;;;;;21.40;51.30;;;;;;5072814;28;19928;-56
2022/06/06 10:31:24;;;;;;;;;;;21.40;51.40;;;;;;5078452;28;20368;-56
2022/06/06 10:34:02;;;;;;;;;;;21.40;51.40;;;;;;5093528;28;19920;-55
2022/06/06 10:36:50;;;;;;;;;;;21.40;51.40;;;;;;5096295;28;19924;-55
2022/06/06 10:39:29;;;;;;;;;;;21.40;51.60;;;;;;5043664;28;19920;-53
2022/06/06 10:42:00;;;;;;;;;;;21.40;51.70;;;;;;5070386;28;20314;-53
2022/06/06 10:44:36;;;;;;;;;;;21.50;51.80;;;;;;5070398;28;19960;-52
2022/06/06 10:47:06;;;;;;;;;;;21.50;51.90;;;;;;5074228;28;20369;-51
2022/06/06 10:49:36;;;;;;;;;;;21.50;51.90;;;;;;5090166;28;20261;-52
2022/06/06 10:52:21;;;;;;;;;;;21.50;51.80;;;;;;5094337;28;20249;-55
2022/06/06 10:55:07;;;;;;;;;;;21.50;51.90;;;;;;5094130;28;19927;-56
2022/06/06 10:57:39;;;;;;;;;;;21.50;51.90;;;;;;5084216;28;19928;-56
2022/06/06 11:00:08;;;;;;;;;;;21.50;51.90;;;;;;5088992;28;19959;-53
2022/06/06 11:02:56;;;;;;;;;;;21.50;52.00;;;;;;5089773;28;19988;-52
2022/06/06 11:05:40;;;;;;;;;;;21.60;52.20;;;;;;5073492;28;20241;-55
2022/06/06 11:08:16;;;;;;;;;;;21.60;52.20;;;;;;5036218;28;19920;-54
2022/06/06 11:10:47;;;;;;;;;;;21.60;52.00;;;;;;5075770;28;19921;-54
2022/06/06 11:13:17;;;;;;;;;;;21.60;51.90;;;;;;5076383;28;19921;-55
2022/06/06 11:15:48;;;;;;;;;;;21.60;51.90;;;;;;5077952;28;19990;-53
2022/06/06 11:18:29;;;;;;;;;;;21.60;51.90;;;;;;5078854;28;20269;-50
2022/06/06 11:21:20;;;;;;;;;;;21.60;51.80;;;;;;5066483;28;19920;-55
2022/06/06 11:23:49;;;;;;;;;;;21.60;51.80;;;;;;5007073;28;19921;-51
2022/06/06 11:26:30;;;;;;;;;;;21.60;51.80;;;;;;5075947;28;19924;-54
2022/06/06 11:29:05;;;;;;;;;;;21.60;51.80;;;;;;5076725;28;19921;-53
2022/06/06 11:31:37;;;;;;;;;;;21.70;51.90;;;;;;5091600;28;19927;-55
2022/06/06 11:34:22;;;;;;;;;;;21.60;51.80;;;;;;5096070;28;20372;-54
2022/06/06 11:36:58;;;;;;;;;;;21.70;51.90;;;;;;5096881;28;19993;-55
2022/06/06 11:39:43;;;;;;;;;;;21.70;51.90;;;;;;5085670;28;19926;-52
2022/06/06 11:42:19;;;;;;;;;;;21.70;51.90;;;;;;5087367;28;19924;-55
2022/06/06 11:45:05;;;;;;;;;;;21.70;51.90;;;;;;5076088;28;20494;-54
2022/06/06 11:47:44;;;;;;;;;;;21.70;51.90;;;;;;5095237;28;19931;-54
2022/06/06 11:50:26;;;;;;;;;;;21.70;52.50;;;;;;5087816;28;20358;-56
2022/06/06 11:53:26;;;;;;;;;;;21.70;51.90;;;;;;5076489;28;19920;-56
2022/06/06 11:56:02;;;;;;;;;;;21.70;51.80;;;;;;5074774;28;19920;-56
2022/06/06 11:58:52;;;;;;;;;;;21.70;51.80;;;;;;5072415;28;19966;-54
2022/06/06 12:01:46;;;;;;;;;;;21.70;51.80;;;;;;5064603;28;19920;-56
2022/06/06 12:04:26;;;;;;;;;;;21.70;51.80;;;;;;5033129;28;19984;-56
2022/06/06 12:07:17;;;;;;;;;;;21.80;51.90;;;;;;5076929;28;19970;-54
2022/06/06 12:09:47;;;;;;;;;;;21.80;51.80;;;;;;5075250;28;19924;-53
2022/06/06 12:12:37;;;;;;;;;;;21.80;51.80;;;;;;5079113;28;19955;-54
2022/06/06 12:15:25;;;;;;;;;;;21.80;51.80;;;;;;5088963;28;19920;-53
2022/06/06 12:17:56;;;;;;;;;;;21.80;51.80;;;;;;5083763;28;19932;-57
2022/06/06 12:20:37;;;;;;;;;;;21.80;51.80;;;;;;5083981;28;20003;-52
2022/06/06 12:23:13;;;;;;;;;;;21.80;51.80;;;;;;5069507;28;19946;-51
2022/06/06 12:26:07;;;;;;;;;;;21.80;51.80;;;;;;5091201;28;19920;-52
2022/06/06 12:28:42;;;;;;;;;;;21.80;51.80;;;;;;5095450;28;19945;-54
2022/06/06 12:31:20;;;;;;;;;;;21.80;52.30;;;;;;5078761;28;19921;-55
2022/06/06 12:33:48;;;;;;;;;;;21.90;51.80;;;;;;5076057;28;19948;-54
2022/06/06 12:36:16;;;;;;;;;;;21.90;51.80;;;;;;5075625;28;19947;-54
2022/06/06 12:38:47;;;;;;;;;;;21.90;51.80;;;;;;5070377;28;19975;-52
2022/06/06 12:41:20;;;;;;;;;;;21.90;51.70;;;;;;5076088;28;19920;-54
2022/06/06 12:43:59;;;;;;;;;;;21.90;51.60;;;;;;5090881;28;19920;-51
2022/06/06 12:46:39;;;;;;;;;;;21.90;51.60;;;;;;5095490;28;20292;-55
2022/06/06 12:49:21;;;;;;;;;;;21.90;51.60;;;;;;5093775;28;19966;-54
2022/06/06 12:51:52;;;;;;;;;;;21.90;51.50;;;;;;5092775;28;20352;-54
2022/06/06 12:55:13;;;;;;;;;;;21.90;51.40;;;;;;5093599;28;20319;-54
2022/06/06 12:57:19;;;;;;;;;;;21.90;51.40;;;;;;5073137;28;20246;-55
2022/06/06 12:59:47;;;;;;;;;;;21.90;51.40;;;;;;5078785;28;19920;-53
2022/06/06 13:02:19;;;;;;;;;;;21.80;51.20;;;;;;5072586;28;20357;-53
2022/06/06 13:04:49;;;;;;;;;;;21.80;51.20;;;;;;5088134;28;20410;-53
2022/06/06 13:07:23;;;;;;;;;;;21.80;51.20;;;;;;5092515;28;20250;-55
2022/06/06 13:09:58;;;;;;;;;;;21.80;51.20;;;;;;5091737;28;19923;-52
2022/06/06 13:12:29;;;;;;;;;;;21.80;51.10;;;;;;5093946;28;19965;-53
2022/06/06 13:15:14;;;;;;;;;;;21.80;51.10;;;;;;5087794;28;19928;-56
2022/06/06 13:17:44;;;;;;;;;;;21.80;51.10;;;;;;5072732;28;20018;-56
2022/06/06 13:20:20;;;;;;;;;;;21.80;51.10;;;;;;5076473;28;19947;-56
2022/06/06 13:22:53;;;;;;;;;;;21.80;51.70;;;;;;5078972;28;19944;-53
2022/06/06 13:25:27;;;;;;;;;;;21.80;51.00;;;;;;5082481;28;19921;-53
2022/06/06 13:27:56;;;;;;;;;;;21.80;51.00;;;;;;5071443;28;19959;-52
2022/06/06 13:30:23;;;;;;;;;;;21.80;51.00;;;;;;5072757;28;20342;-53
2022/06/06 13:32:51;;;;;;;;;;;21.80;51.00;;;;;;5073021;28;20354;-53
2022/06/06 13:35:19;;;;;;;;;;;21.80;51.00;;;;;;5073963;28;19994;-55
2022/06/06 13:37:50;;;;;;;;;;;21.70;50.80;;;;;;5071724;28;20276;-54
2022/06/06 13:40:23;;;;;;;;;;;21.70;50.80;;;;;;5061410;28;20429;-53
2022/06/06 13:42:56;;;;;;;;;;;21.80;50.90;;;;;;5084355;28;19970;-54
2022/06/06 13:45:24;;;;;;;;;;;21.80;50.90;;;;;;5090131;28;19920;-55
2022/06/06 13:48:06;;;;;;;;;;;21.80;50.90;;;;;;5094137;28;19942;-52
2022/06/06 13:50:34;;;;;;;;;;;21.80;50.90;;;;;;5089558;28;20277;-58
2022/06/06 13:53:04;;;;;;;;;;;21.70;50.80;;;;;;5094317;28;19920;-52
2022/06/06 13:55:32;;;;;;;;;;;21.70;50.70;;;;;;5093552;28;19938;-51
2022/06/06 13:58:03;;;;;;;;;;;21.70;50.70;;;;;;5092791;28;19920;-53
2022/06/06 14:00:31;;;;;;;;;;;21.80;50.80;;;;;;5082155;28;19985;-53
2022/06/06 14:03:11;;;;;;;;;;;21.80;50.80;;;;;;5072045;28;19920;-55
2022/06/06 14:05:52;;;;;;;;;;;21.70;50.70;;;;;;5080364;28;19920;-51
2022/06/06 14:08:20;;;;;;;;;;;21.70;50.60;;;;;;5073019;28;19974;-52
2022/06/06 14:10:59;;;;;;;;;;;21.70;50.60;;;;;;5081007;28;19920;-54
2022/06/06 14:13:33;;;;;;;;;;;21.70;50.60;;;;;;5092408;28;19924;-54
2022/06/06 14:15:59;;;;;;;;;;;21.80;50.60;;;;;;5092635;28;20018;-54
2022/06/06 14:18:27;;;;;;;;;;;21.70;50.60;;;;;;5076676;28;19920;-56
2022/06/06 14:20:56;;;;;;;;;;;21.70;50.50;;;;;;5078994;28;20317;-55
2022/06/06 14:23:23;;;;;;;;;;;21.70;50.50;;;;;;5071069;28;19930;-52
2022/06/06 14:25:51;;;;;;;;;;;21.70;50.50;;;;;;5077306;28;19928;-54
2022/06/06 14:28:18;;;;;;;;;;;21.70;50.50;;;;;;5073576;28;20342;-54
2022/06/06 14:30:46;;;;;;;;;;;21.70;50.50;;;;;;5073199;28;20272;-54
2022/06/06 14:33:21;;;;;;;;;;;21.70;50.50;;;;;;5074796;28;20382;-51
2022/06/06 14:35:47;;;;;;;;;;;21.70;50.40;;;;;;5077408;28;19920;-53
2022/06/06 14:38:18;;;;;;;;;;;21.70;50.40;;;;;;5077241;28;19924;-52
2022/06/06 14:40:49;;;;;;;;;;;21.70;50.40;;;;;;5089103;28;19924;-54
2022/06/06 14:43:16;;;;;;;;;;;21.70;50.40;;;;;;5094250;28;19920;-51
2022/06/06 14:45:42;;;;;;;;;;;21.70;50.30;;;;;;5084498;28;19973;-55
2022/06/06 14:48:11;;;;;;;;;;;21.70;50.30;;;;;;5097157;28;19920;-52
2022/06/06 14:50:47;;;;;;;;;;;21.70;50.30;;;;;;5097552;28;19927;-51
2022/06/06 14:53:15;;;;;;;;;;;21.70;50.30;;;;;;5095502;28;19920;-53
2022/06/06 14:55:43;;;;;;;;;;;21.70;50.30;;;;;;5095773;28;19934;-54
2022/06/06 14:58:10;;;;;;;;;;;21.70;50.20;;;;;;5096857;28;19923;-56
2022/06/06 15:00:37;;;;;;;;;;;21.70;50.30;;;;;;5096775;28;19938;-55
2022/06/06 15:03:05;;;;;;;;;;;21.70;50.20;;;;;;5090126;28;20268;-52
2022/06/06 15:05:33;;;;;;;;;;;21.70;50.20;;;;;;5092459;28;20320;-56
2022/06/06 15:08:00;;;;;;;;;;;21.70;50.20;;;;;;5092494;28;20272;-55
2022/06/06 15:10:29;;;;;;;;;;;21.70;50.20;;;;;;5095742;28;19927;-55